Time;durP1;ratioP1;P1;durP2;ratioP2;P2;SDS_P1;SDS_P2;PMS_P1;PMS_P2;Temp;Humidity;BMP_temperature;BMP_pressure;BME280_temperature;BME280_humidity;BME280_pressure;Samples;Min_cycle;Max_cycle;Signal;HPM_P1;HPM_P2
2021/03/15 00:00:48;;;;;;;7.53;4.80;;;5.80;99.90;;;;;;5025424;28;20642;-73
2021/03/15 00:03:33;;;;;;;7.82;4.40;;;5.80;99.90;;;;;;5023436;28;20257;-73
2021/03/15 00:06:19;;;;;;;4.93;3.85;;;5.80;99.90;;;;;;5021824;28;20237;-73
2021/03/15 00:09:04;;;;;;;6.32;3.70;;;5.90;99.90;;;;;;5021626;28;20210;-73
2021/03/15 00:11:50;;;;;;;10.50;5.47;;;5.90;99.90;;;;;;5023232;28;20222;-72
2021/03/15 00:14:35;;;;;;;8.50;4.53;;;5.80;99.90;;;;;;5017875;28;20301;-73
2021/03/15 00:17:20;;;;;;;7.88;5.22;;;5.90;99.90;;;;;;5026342;28;20201;-73
2021/03/15 00:20:08;;;;;;;9.05;5.40;;;5.90;99.90;;;;;;5023270;28;20257;-73
2021/03/15 00:22:54;;;;;;;7.90;6.20;;;5.90;99.90;;;;;;5021688;28;20236;-74
2021/03/15 00:25:39;;;;;;;9.35;5.53;;;6.00;99.90;;;;;;5023523;28;21027;-73
2021/03/15 00:28:24;;;;;;;9.10;6.03;;;5.90;99.90;;;;;;5023565;28;20268;-73
2021/03/15 00:31:09;;;;;;;7.97;5.40;;;5.90;99.90;;;;;;5020681;28;20221;-73
2021/03/15 00:33:54;;;;;;;16.42;5.47;;;5.90;99.90;;;;;;5020745;28;20692;-73
2021/03/15 00:36:40;;;;;;;9.88;5.95;;;5.90;99.90;;;;;;5020134;28;20200;-73
2021/03/15 00:39:26;;;;;;;8.65;5.45;;;5.70;99.90;;;;;;5016532;28;20237;-73
2021/03/15 00:42:11;;;;;;;8.75;6.10;;;5.80;99.90;;;;;;5022108;28;20241;-73
2021/03/15 00:44:56;;;;;;;7.22;5.60;;;5.80;99.90;;;;;;5021493;28;20206;-73
2021/03/15 00:47:41;;;;;;;13.65;5.50;;;5.70;99.90;;;;;;5019376;28;20297;-73
2021/03/15 00:50:29;;;;;;;14.98;5.90;;;5.60;99.90;;;;;;5028570;28;20279;-73
2021/03/15 00:53:13;;;;;;;9.00;5.72;;;5.60;99.90;;;;;;5026885;28;20324;-73
2021/03/15 00:56:00;;;;;;;13.55;5.95;;;5.60;99.90;;;;;;5024393;28;20248;-73
2021/03/15 00:58:45;;;;;;;7.30;5.70;;;5.50;99.90;;;;;;5022875;28;20201;-73
2021/03/15 01:01:30;;;;;;;9.68;6.53;;;5.50;99.90;;;;;;5030098;28;20206;-74
2021/03/15 01:04:16;;;;;;;8.05;6.50;;;5.50;99.90;;;;;;5025738;28;20205;-73
2021/03/15 01:07:00;;;;;;;13.65;5.90;;;5.60;99.90;;;;;;5020551;28;20273;-73
2021/03/15 01:09:46;;;;;;;7.03;5.65;;;5.70;99.90;;;;;;5029057;28;20261;-73
2021/03/15 01:12:32;;;;;;;9.68;5.78;;;5.70;99.90;;;;;;5028232;28;20252;-73
2021/03/15 01:15:20;;;;;;;7.63;5.50;;;5.80;99.90;;;;;;5029555;28;20237;-74
2021/03/15 01:18:06;;;;;;;8.15;5.22;;;5.80;99.90;;;;;;5025404;28;20245;-73
2021/03/15 01:20:51;;;;;;;8.18;5.38;;;5.80;99.90;;;;;;5030066;28;20241;-72
2021/03/15 01:23:36;;;;;;;8.63;6.53;;;5.80;99.90;;;;;;5027945;28;20205;-73
2021/03/15 01:26:21;;;;;;;6.35;5.45;;;5.80;99.90;;;;;;5029506;28;20337;-73
2021/03/15 01:29:07;;;;;;;7.80;5.70;;;5.80;99.90;;;;;;5024733;28;20225;-73
2021/03/15 01:31:52;;;;;;;10.57;6.30;;;5.80;99.90;;;;;;5027378;28;20233;-73
2021/03/15 01:34:37;;;;;;;8.60;5.38;;;5.90;99.90;;;;;;5023982;28;20784;-73
2021/03/15 01:37:22;;;;;;;6.65;5.68;;;5.90;99.90;;;;;;5026606;28;20582;-73
2021/03/15 01:40:08;;;;;;;9.63;5.88;;;5.90;99.90;;;;;;5023194;28;20299;-73
2021/03/15 01:42:54;;;;;;;8.27;5.43;;;6.00;99.90;;;;;;5021810;28;20213;-73
2021/03/15 01:45:40;;;;;;;10.52;6.30;;;6.00;99.90;;;;;;5021401;28;20244;-73
2021/03/15 01:48:25;;;;;;;15.30;6.38;;;6.00;99.90;;;;;;5026486;28;20209;-73
2021/03/15 01:51:10;;;;;;;11.07;6.70;;;6.00;99.90;;;;;;5029729;28;20264;-73
2021/03/15 01:53:55;;;;;;;12.20;6.95;;;6.00;99.90;;;;;;5019888;28;20780;-73
2021/03/15 01:56:41;;;;;;;14.27;5.95;;;6.00;99.90;;;;;;5026515;28;20245;-73
2021/03/15 01:59:27;;;;;;;15.52;6.85;;;6.00;99.90;;;;;;5028342;28;20231;-73
2021/03/15 02:02:13;;;;;;;8.70;6.10;;;6.00;99.90;;;;;;5025380;28;20280;-73
2021/03/15 02:04:58;;;;;;;14.90;7.68;;;6.00;99.90;;;;;;5024467;28;20209;-73
2021/03/15 02:07:43;;;;;;;12.07;6.32;;;6.00;99.90;;;;;;5025207;28;20209;-73
2021/03/15 02:10:29;;;;;;;9.40;6.28;;;6.00;99.90;;;;;;5028120;28;20233;-73
2021/03/15 02:13:53;;;;;;;9.07;6.85;;;6.00;99.90;;;;;;5028410;28;20204;-73
2021/03/15 02:16:48;;;;;;;9.47;6.67;;;5.90;99.90;;;;;;5022579;28;20260;-73
2021/03/15 02:20:20;;;;;;;9.20;6.28;;;5.90;99.90;;;;;;5023926;28;20480;-73
2021/03/15 02:23:09;;;;;;;8.20;6.07;;;6.00;99.90;;;;;;5022139;28;20202;-73
2021/03/15 02:26:36;;;;;;;9.10;6.00;;;5.90;99.90;;;;;;5020980;28;20201;-73
2021/03/15 02:29:43;;;;;;;10.70;6.90;;;6.00;99.90;;;;;;5015105;28;20452;-74
2021/03/15 02:33:11;;;;;;;9.80;7.10;;;6.00;99.90;;;;;;5025930;28;20440;-73
2021/03/15 02:36:00;;;;;;;11.70;6.75;;;5.90;99.90;;;;;;5021324;28;20289;-73
2021/03/15 02:38:47;;;;;;;7.90;5.90;;;5.90;99.90;;;;;;5022067;28;20209;-73
2021/03/15 02:41:36;;;;;;;9.10;6.70;;;5.80;99.90;;;;;;5025199;28;20804;-73
2021/03/15 02:44:22;;;;;;;9.50;6.68;;;5.80;99.90;;;;;;5024327;28;20213;-73
2021/03/15 02:47:12;;;;;;;6.82;5.90;;;5.70;99.90;;;;;;5023005;28;20683;-73
2021/03/15 02:50:02;;;;;;;11.48;6.38;;;5.80;99.90;;;;;;5021017;28;20582;-73
2021/03/15 02:52:51;;;;;;;15.50;6.67;;;5.80;99.90;;;;;;5021450;28;20205;-73
2021/03/15 02:55:38;;;;;;;10.43;6.53;;;5.90;99.90;;;;;;5025018;28;20548;-73
2021/03/15 02:58:23;;;;;;;14.93;7.30;;;5.90;99.90;;;;;;5018165;28;20296;-73
2021/03/15 03:01:09;;;;;;;8.55;6.40;;;5.90;99.90;;;;;;5021598;28;20240;-74
2021/03/15 03:03:56;;;;;;;10.25;5.70;;;6.00;99.90;;;;;;5020138;28;20201;-72
2021/03/15 03:06:42;;;;;;;12.90;7.45;;;6.00;99.90;;;;;;5023404;28;20204;-73
2021/03/15 03:09:29;;;;;;;13.60;7.60;;;5.90;99.90;;;;;;5026269;28;20241;-74
2021/03/15 03:12:16;;;;;;;15.95;6.90;;;6.00;99.90;;;;;;5024622;28;20249;-73
2021/03/15 03:15:02;;;;;;;9.73;6.85;;;5.90;99.90;;;;;;5025778;28;20399;-73
2021/03/15 03:17:48;;;;;;;21.13;8.13;;;5.90;99.90;;;;;;5022272;28;20282;-73
2021/03/15 03:20:34;;;;;;;12.35;8.05;;;5.80;99.90;;;;;;5025015;28;20313;-73
2021/03/15 03:23:20;;;;;;;17.92;8.35;;;5.90;99.90;;;;;;5018167;28;20221;-73
2021/03/15 03:26:08;;;;;;;10.02;6.10;;;5.90;99.90;;;;;;5022566;28;20838;-73
2021/03/15 03:28:54;;;;;;;12.95;7.18;;;5.90;99.90;;;;;;5019877;28;20248;-73
2021/03/15 03:31:43;;;;;;;13.13;6.50;;;5.90;99.90;;;;;;5018577;28;20230;-73
2021/03/15 03:34:28;;;;;;;13.05;6.80;;;5.90;99.90;;;;;;5025501;28;21056;-73
2021/03/15 03:37:13;;;;;;;6.90;5.15;;;5.70;99.90;;;;;;5025952;28;20248;-73
2021/03/15 03:39:58;;;;;;;14.90;7.13;;;5.70;99.90;;;;;;5019870;28;20229;-73
2021/03/15 03:42:45;;;;;;;14.73;5.70;;;5.80;99.90;;;;;;5024389;28;20790;-73
2021/03/15 03:45:30;;;;;;;13.20;6.03;;;5.70;99.90;;;;;;5022399;28;20201;-73
2021/03/15 03:48:15;;;;;;;11.80;5.97;;;5.80;99.90;;;;;;5022121;28;20582;-73
2021/03/15 03:51:01;;;;;;;17.55;5.85;;;5.80;99.90;;;;;;5021435;28;21102;-73
2021/03/15 03:53:50;;;;;;;11.60;5.78;;;5.80;99.90;;;;;;5020322;28;20252;-73
2021/03/15 03:56:41;;;;;;;19.33;5.93;;;5.80;99.90;;;;;;5020116;28;20402;-73
2021/03/15 03:59:30;;;;;;;12.75;5.75;;;5.80;99.90;;;;;;5024408;28;20360;-73
2021/03/15 04:02:19;;;;;;;10.38;5.90;;;5.90;99.90;;;;;;5026410;28;20216;-73
2021/03/15 04:05:08;;;;;;;21.17;8.20;;;5.80;99.90;;;;;;5021138;28;20309;-73
2021/03/15 04:07:57;;;;;;;9.63;7.47;;;5.80;99.90;;;;;;5019185;28;20738;-72
2021/03/15 04:10:43;;;;;;;10.60;5.10;;;5.80;99.90;;;;;;5022013;28;20214;-73
2021/03/15 04:13:29;;;;;;;11.63;5.13;;;5.70;99.90;;;;;;5025219;28;20252;-73
2021/03/15 04:16:16;;;;;;;14.95;6.20;;;5.60;99.90;;;;;;5019360;28;20217;-73
2021/03/15 04:19:05;;;;;;;19.23;5.57;;;5.50;99.90;;;;;;5025110;28;20571;-73
2021/03/15 04:21:56;;;;;;;17.02;5.47;;;5.50;99.90;;;;;;5025146;28;20205;-74
2021/03/15 04:24:42;;;;;;;15.27;6.40;;;5.40;99.90;;;;;;5029044;28;20205;-73
2021/03/15 04:27:29;;;;;;;10.27;5.93;;;5.40;99.90;;;;;;5027982;28;20440;-73
2021/03/15 04:30:15;;;;;;;14.27;6.25;;;5.40;99.90;;;;;;5027454;28;20228;-73
2021/03/15 04:33:02;;;;;;;13.60;6.32;;;5.50;99.90;;;;;;5021947;28;20209;-73
2021/03/15 04:35:47;;;;;;;15.25;6.25;;;5.50;99.90;;;;;;5027581;28;20206;-73
2021/03/15 04:38:34;;;;;;;12.07;5.18;;;5.50;99.90;;;;;;5024858;28;20251;-72
2021/03/15 04:41:19;;;;;;;10.27;5.50;;;5.50;99.90;;;;;;5029052;28;20241;-73
2021/03/15 04:44:06;;;;;;;7.97;4.90;;;5.40;99.90;;;;;;5024406;28;20236;-73
2021/03/15 04:46:53;;;;;;;9.25;5.10;;;5.50;99.90;;;;;;5025790;28;20249;-73
2021/03/15 04:49:40;;;;;;;14.48;5.00;;;5.40;99.90;;;;;;5023809;28;20228;-73
2021/03/15 04:52:28;;;;;;;16.95;5.75;;;5.40;99.90;;;;;;5028722;28;20202;-73
2021/03/15 04:55:14;;;;;;;8.93;4.78;;;5.40;99.90;;;;;;5028744;28;20225;-73
2021/03/15 04:58:05;;;;;;;15.52;4.82;;;5.40;99.90;;;;;;5028392;28;20217;-73
2021/03/15 05:00:53;;;;;;;9.35;4.65;;;5.50;99.90;;;;;;5022472;28;20225;-73
2021/03/15 05:03:40;;;;;;;10.27;5.20;;;5.60;99.90;;;;;;5026101;28;20256;-73
2021/03/15 05:06:27;;;;;;;21.92;5.03;;;5.60;99.90;;;;;;5028445;28;20289;-73
2021/03/15 05:09:14;;;;;;;11.43;3.97;;;5.50;99.90;;;;;;5025024;28;20210;-73
2021/03/15 05:12:00;;;;;;;13.48;4.35;;;5.40;99.90;;;;;;5027478;28;20210;-73
2021/03/15 05:14:46;;;;;;;10.88;4.93;;;5.40;99.90;;;;;;5024946;28;20653;-73
2021/03/15 05:17:31;;;;;;;11.93;6.55;;;5.30;99.90;;;;;;5024734;28;20263;-73
2021/03/15 05:20:18;;;;;;;13.23;5.65;;;5.30;99.90;;;;;;5022435;28;20240;-73
2021/03/15 05:23:08;;;;;;;11.68;5.30;;;5.40;99.90;;;;;;5021171;28;20677;-73
2021/03/15 05:25:54;;;;;;;11.57;5.35;;;5.30;99.90;;;;;;5021134;28;20260;-73
2021/03/15 05:28:41;;;;;;;11.57;5.55;;;5.30;99.90;;;;;;5022439;28;20225;-73
2021/03/15 05:31:26;;;;;;;9.05;5.35;;;5.40;99.90;;;;;;5027259;28;20229;-73
2021/03/15 05:34:13;;;;;;;11.93;5.68;;;5.30;99.90;;;;;;5023709;28;20259;-73
2021/03/15 05:37:00;;;;;;;13.07;5.47;;;5.20;99.90;;;;;;5027826;28;20205;-73
2021/03/15 05:39:46;;;;;;;14.15;6.70;;;5.30;99.90;;;;;;5030306;28;20316;-73
2021/03/15 05:42:45;;;;;;;12.55;5.15;;;5.20;99.90;;;;;;5033170;28;20340;-73
2021/03/15 05:45:55;;;;;;;8.23;5.45;;;5.30;99.90;;;;;;5032793;28;20202;-73
2021/03/15 05:49:18;;;;;;;15.85;6.70;;;5.40;99.90;;;;;;5032013;28;20217;-72
2021/03/15 05:52:08;;;;;;;11.30;5.90;;;5.40;99.90;;;;;;5029151;28;20202;-73
2021/03/15 05:55:24;;;;;;;10.07;5.65;;;5.50;99.90;;;;;;5026833;28;20202;-73
2021/03/15 05:58:54;;;;;;;10.48;5.90;;;5.50;99.90;;;;;;5029271;28;20602;-73
2021/03/15 06:02:11;;;;;;;11.35;5.25;;;5.50;99.90;;;;;;5026985;28;20201;-73
2021/03/15 06:05:17;;;;;;;15.90;6.78;;;5.30;99.90;;;;;;5022934;28;20707;-73
2021/03/15 06:08:05;;;;;;;11.93;6.72;;;5.30;99.90;;;;;;5028150;28;20597;-74
2021/03/15 06:11:06;;;;;;;14.80;5.60;;;5.20;99.90;;;;;;5032392;28;20241;-73
2021/03/15 06:13:52;;;;;;;11.93;4.75;;;5.20;99.90;;;;;;5022708;28;20274;-73
2021/03/15 06:16:37;;;;;;;7.85;4.70;;;5.30;99.90;;;;;;5029920;28;20687;-72
2021/03/15 06:19:24;;;;;;;8.32;5.03;;;5.30;99.90;;;;;;5030262;28;20759;-73
2021/03/15 06:22:11;;;;;;;6.93;5.28;;;5.30;99.90;;;;;;5024700;28;20210;-73
2021/03/15 06:24:57;;;;;;;9.07;5.32;;;5.20;99.90;;;;;;5028578;28;20201;-73
2021/03/15 06:27:44;;;;;;;9.80;5.22;;;5.20;99.90;;;;;;5024553;28;20210;-73
2021/03/15 06:30:30;;;;;;;8.23;5.97;;;5.20;99.90;;;;;;5031067;28;20293;-73
2021/03/15 06:33:17;;;;;;;8.25;5.43;;;5.30;99.90;;;;;;5029933;28;20228;-73
2021/03/15 06:36:05;;;;;;;6.30;4.82;;;5.30;99.90;;;;;;5031264;28;20204;-73
2021/03/15 06:38:51;;;;;;;9.40;4.65;;;5.30;99.90;;;;;;5021089;28;20201;-73
2021/03/15 06:41:37;;;;;;;7.30;5.10;;;5.30;99.90;;;;;;5027860;28;20694;-73
2021/03/15 06:44:23;;;;;;;8.27;4.88;;;5.30;99.90;;;;;;5025836;28;20264;-73
2021/03/15 06:47:09;;;;;;;9.77;5.50;;;5.20;99.90;;;;;;5018792;28;20280;-73
2021/03/15 06:49:55;;;;;;;5.85;4.45;;;5.30;99.90;;;;;;5028064;28;20260;-73
2021/03/15 06:52:55;;;;;;;7.70;4.45;;;5.20;99.90;;;;;;5022008;28;20214;-73
2021/03/15 06:55:49;;;;;;;6.88;4.18;;;5.20;99.90;;;;;;5017834;28;20222;-73
2021/03/15 06:58:34;;;;;;;5.55;4.03;;;5.20;99.90;;;;;;5019721;28;20216;-73
2021/03/15 07:01:22;;;;;;;5.93;4.40;;;5.20;99.90;;;;;;5022273;28;20233;-73
2021/03/15 07:04:08;;;;;;;5.75;3.78;;;5.10;99.90;;;;;;5024079;28;20201;-73
2021/03/15 07:06:54;;;;;;;3.90;2.88;;;5.00;99.90;;;;;;5020057;28;20727;-73
2021/03/15 07:09:39;;;;;;;4.65;2.90;;;5.00;99.90;;;;;;5025503;28;20221;-73
2021/03/15 07:12:25;;;;;;;7.15;3.15;;;5.00;99.90;;;;;;5024336;28;20210;-73
2021/03/15 07:15:11;;;;;;;6.13;3.22;;;5.00;99.90;;;;;;5023690;28;20622;-73
2021/03/15 07:18:10;;;;;;;4.90;3.60;;;4.90;99.90;;;;;;5022803;28;20291;-73
2021/03/15 07:20:57;;;;;;;4.22;3.30;;;4.90;99.90;;;;;;5014705;28;20230;-74
2021/03/15 07:23:44;;;;;;;3.13;2.83;;;5.00;99.90;;;;;;5019811;28;20559;-73
2021/03/15 07:26:30;;;;;;;3.08;2.60;;;5.00;99.90;;;;;;5023359;28;20217;-73
2021/03/15 07:29:16;;;;;;;3.15;2.40;;;5.00;99.90;;;;;;5022787;28;20261;-73
2021/03/15 07:32:01;;;;;;;3.63;3.20;;;5.10;99.90;;;;;;5017217;28;20201;-73
2021/03/15 07:34:47;;;;;;;3.80;2.63;;;5.20;99.90;;;;;;5022994;28;20569;-73
2021/03/15 07:37:33;;;;;;;4.18;3.10;;;5.20;99.90;;;;;;5021103;28;20674;-73
2021/03/15 07:40:40;;;;;;;4.05;3.08;;;5.20;99.90;;;;;;5023265;28;20493;-73
2021/03/15 07:43:27;;;;;;;3.95;2.58;;;5.20;99.90;;;;;;5026868;28;20325;-74
2021/03/15 07:46:18;;;;;;;3.03;2.50;;;5.10;99.90;;;;;;5026657;28;20262;-73
2021/03/15 07:49:03;;;;;;;4.03;3.15;;;5.10;99.90;;;;;;5027407;28;20583;-73
2021/03/15 07:51:53;;;;;;;3.25;2.90;;;5.20;99.90;;;;;;5024229;28;20244;-73
2021/03/15 07:54:40;;;;;;;3.42;3.05;;;5.20;99.90;;;;;;5023424;28;20252;-73
2021/03/15 07:57:27;;;;;;;4.03;3.20;;;5.30;99.90;;;;;;5018558;28;20563;-73
2021/03/15 08:00:13;;;;;;;3.33;3.00;;;5.30;99.90;;;;;;5024271;28;20268;-73
2021/03/15 08:02:59;;;;;;;3.90;3.33;;;5.40;99.90;;;;;;5021043;28;20558;-73
2021/03/15 08:05:45;;;;;;;7.88;4.03;;;5.40;99.90;;;;;;5020071;28;20206;-73
2021/03/15 08:08:31;;;;;;;4.32;3.92;;;5.40;99.90;;;;;;5026481;28;20213;-73
2021/03/15 08:11:18;;;;;;;3.53;3.22;;;5.50;99.90;;;;;;5021755;28;20576;-73
2021/03/15 08:14:04;;;;;;;3.95;3.55;;;5.60;99.90;;;;;;5021730;28;20750;-74
2021/03/15 08:16:51;;;;;;;4.10;3.60;;;5.70;99.90;;;;;;5019201;28;20201;-73
2021/03/15 08:19:38;;;;;;;4.30;3.55;;;5.70;99.90;;;;;;5022075;28;20228;-73
2021/03/15 08:22:27;;;;;;;4.80;4.10;;;5.70;99.90;;;;;;5020132;28;20474;-73
2021/03/15 08:25:14;;;;;;;4.65;4.25;;;5.70;99.90;;;;;;5022196;28;20225;-73
2021/03/15 08:28:04;;;;;;;4.78;4.38;;;5.70;99.90;;;;;;5020331;28;20209;-73
2021/03/15 08:30:54;;;;;;;5.40;4.90;;;5.80;99.90;;;;;;5024933;28;20221;-74
2021/03/15 08:33:40;;;;;;;5.22;4.72;;;5.60;99.90;;;;;;5019790;28;20202;-73
2021/03/15 08:36:25;;;;;;;6.32;3.95;;;5.60;99.90;;;;;;5024638;28;20707;-73
2021/03/15 08:39:35;;;;;;;7.30;4.90;;;5.70;99.90;;;;;;5023451;28;20205;-73
2021/03/15 08:42:28;;;;;;;6.00;4.50;;;5.70;99.90;;;;;;5023981;28;20597;-73
2021/03/15 08:45:28;;;;;;;6.95;4.90;;;5.70;99.90;;;;;;5018752;28;20651;-73
2021/03/15 08:48:13;;;;;;;5.90;4.47;;;5.70;99.90;;;;;;5022871;28;20711;-73
2021/03/15 08:50:59;;;;;;;7.63;5.03;;;5.80;99.90;;;;;;5021399;28;20296;-74
2021/03/15 08:53:51;;;;;;;5.28;4.75;;;5.90;99.90;;;;;;5023127;28;20556;-75
2021/03/15 08:56:42;;;;;;;5.28;4.40;;;6.00;99.90;;;;;;5017818;28;20202;-74
2021/03/15 08:59:33;;;;;;;4.95;4.13;;;6.00;99.90;;;;;;5022786;28;20338;-73
2021/03/15 09:02:33;;;;;;;5.20;4.60;;;6.00;99.90;;;;;;5021123;28;20215;-73
2021/03/15 09:05:27;;;;;;;8.50;4.72;;;5.90;99.90;;;;;;5026622;28;20210;-73
2021/03/15 09:08:12;;;;;;;9.55;5.68;;;6.00;99.90;;;;;;5024912;28;20201;-73
2021/03/15 09:10:57;;;;;;;6.13;5.38;;;6.10;99.90;;;;;;5025054;28;20599;-73
2021/03/15 09:13:41;;;;;;;7.13;5.38;;;6.10;99.90;;;;;;5026891;28;20205;-73
2021/03/15 09:16:30;;;;;;;6.40;4.40;;;5.90;99.90;;;;;;5025344;28;20233;-73
2021/03/15 09:19:20;;;;;;;4.80;4.00;;;5.90;99.90;;;;;;5023376;28;20241;-73
2021/03/15 09:22:06;;;;;;;3.88;3.22;;;5.90;99.90;;;;;;5024459;28;20250;-73
2021/03/15 09:24:53;;;;;;;3.92;3.30;;;5.90;99.90;;;;;;5019247;28;20679;-73
2021/03/15 09:27:39;;;;;;;4.28;3.03;;;5.90;99.90;;;;;;5021943;28;20931;-74
2021/03/15 09:30:26;;;;;;;4.60;2.42;;;5.90;99.90;;;;;;5028736;28;20234;-73
2021/03/15 09:33:13;;;;;;;3.58;2.70;;;6.00;99.90;;;;;;5022331;28;20209;-73
2021/03/15 09:35:58;;;;;;;16.05;3.25;;;6.10;99.90;;;;;;5025832;28;20217;-74
2021/03/15 09:38:43;;;;;;;4.13;2.63;;;6.20;99.90;;;;;;5026664;28;20329;-73
2021/03/15 09:41:29;;;;;;;5.25;2.90;;;6.30;99.90;;;;;;5026552;28;20233;-74
2021/03/15 09:44:14;;;;;;;6.72;2.55;;;6.20;99.90;;;;;;5021756;28;20218;-74
2021/03/15 09:47:00;;;;;;;4.38;2.67;;;6.40;99.90;;;;;;5020107;28;20253;-74
2021/03/15 09:49:46;;;;;;;5.78;2.50;;;6.40;99.90;;;;;;5019183;28;20285;-74
2021/03/15 09:52:31;;;;;;;4.22;2.70;;;6.50;99.90;;;;;;5026841;28;20233;-74
2021/03/15 09:55:17;;;;;;;3.63;2.90;;;6.50;99.90;;;;;;5026748;28;20318;-73
2021/03/15 09:58:07;;;;;;;3.17;2.55;;;6.50;99.90;;;;;;5019007;28;20256;-74
2021/03/15 10:00:54;;;;;;;5.80;2.90;;;6.50;99.90;;;;;;5024539;28;20269;-74
2021/03/15 10:03:39;;;;;;;3.67;2.15;;;6.60;99.90;;;;;;5022525;28;20368;-73
2021/03/15 10:06:27;;;;;;;2.83;2.42;;;6.70;99.90;;;;;;5018497;28;20214;-73
2021/03/15 10:09:12;;;;;;;3.40;2.28;;;6.90;99.90;;;;;;5019465;28;20206;-73
2021/03/15 10:11:58;;;;;;;3.15;2.03;;;6.90;99.90;;;;;;5020359;28;20808;-74
2021/03/15 10:14:43;;;;;;;4.20;2.63;;;7.00;99.90;;;;;;5023779;28;20208;-73
2021/03/15 10:17:28;;;;;;;4.73;2.30;;;7.20;99.90;;;;;;5022558;28;20277;-74
2021/03/15 10:20:23;;;;;;;3.80;2.53;;;7.10;99.90;;;;;;5024030;28;20524;-74
2021/03/15 10:23:13;;;;;;;5.30;2.83;;;7.10;99.90;;;;;;5022987;28;20530;-73
2021/03/15 10:26:00;;;;;;;4.85;2.25;;;7.20;99.90;;;;;;5022145;28;20248;-73
2021/03/15 10:28:48;;;;;;;3.10;2.50;;;7.20;99.90;;;;;;5026188;28;20320;-74
2021/03/15 10:31:33;;;;;;;2.77;2.10;;;7.30;99.90;;;;;;5026366;28;20576;-74
2021/03/15 10:34:21;;;;;;;4.32;2.40;;;7.40;99.90;;;;;;5023309;28;20706;-74
2021/03/15 10:37:06;;;;;;;2.40;1.80;;;7.40;99.90;;;;;;5023550;28;20738;-74
2021/03/15 10:39:54;;;;;;;3.03;1.97;;;7.30;99.90;;;;;;5018789;28;20588;-73
2021/03/15 10:42:40;;;;;;;4.53;1.75;;;7.40;99.90;;;;;;5017747;28;20920;-74
2021/03/15 10:45:27;;;;;;;2.95;1.83;;;7.40;99.90;;;;;;5016387;28;20300;-74
2021/03/15 10:48:12;;;;;;;3.13;1.90;;;7.50;99.90;;;;;;5024474;28;20726;-74
2021/03/15 10:50:58;;;;;;;2.58;1.40;;;7.60;99.90;;;;;;5021587;28;20503;-74
2021/03/15 10:53:45;;;;;;;2.47;1.77;;;7.70;99.90;;;;;;5024399;28;20201;-74
2021/03/15 10:56:31;;;;;;;2.10;1.50;;;7.90;99.90;;;;;;5028638;28;20472;-75
2021/03/15 10:59:31;;;;;;;2.77;1.57;;;8.00;99.90;;;;;;5029203;28;20506;-74
2021/03/15 11:02:21;;;;;;;2.77;1.93;;;8.20;99.90;;;;;;5019122;28;20806;-74
2021/03/15 11:05:07;;;;;;;8.80;1.80;;;8.10;99.90;;;;;;5022926;28;20525;-73
2021/03/15 11:07:52;;;;;;;3.30;1.50;;;8.00;99.90;;;;;;5022301;28;20495;-74
2021/03/15 11:10:37;;;;;;;3.10;1.67;;;7.80;99.90;;;;;;5020929;28;20514;-74
2021/03/15 11:13:25;;;;;;;2.50;1.83;;;7.80;99.90;;;;;;5021927;28;20460;-74
2021/03/15 11:16:20;;;;;;;3.93;2.33;;;7.70;99.90;;;;;;5023431;28;20962;-74
2021/03/15 11:19:10;;;;;;;3.00;1.93;;;7.70;99.90;;;;;;5025658;28;20490;-74
2021/03/15 11:21:56;;;;;;;2.50;2.03;;;7.80;99.90;;;;;;5019964;28;20480;-74
2021/03/15 11:24:41;;;;;;;2.20;1.90;;;7.70;99.90;;;;;;5021896;28;20448;-73
2021/03/15 11:27:33;;;;;;;3.30;2.10;;;7.80;99.90;;;;;;5019307;28;20502;-74
2021/03/15 11:30:27;;;;;;;4.20;2.47;;;7.80;99.90;;;;;;5023587;28;20229;-74
2021/03/15 11:33:13;;;;;;;2.77;2.03;;;7.90;99.90;;;;;;5013063;28;21017;-75
2021/03/15 11:35:59;;;;;;;3.40;2.07;;;8.10;99.90;;;;;;5020992;28;20489;-76
2021/03/15 11:38:48;;;;;;;3.10;2.40;;;8.30;99.90;;;;;;5020064;28;20611;-74
2021/03/15 11:41:39;;;;;;;6.50;2.27;;;8.40;99.90;;;;;;5019284;28;20561;-74
2021/03/15 11:44:24;;;;;;;2.90;2.40;;;8.90;99.90;;;;;;5024754;28;20971;-74
2021/03/15 11:47:10;;;;;;;2.80;2.07;;;9.10;99.90;;;;;;5017763;28;20529;-75
2021/03/15 11:49:55;;;;;;;4.60;2.23;;;9.40;99.90;;;;;;5023959;28;20471;-74
2021/03/15 11:52:41;;;;;;;3.43;2.67;;;9.80;99.90;;;;;;5016402;28;20449;-75
2021/03/15 11:55:26;;;;;;;4.90;2.20;;;10.10;99.90;;;;;;5020804;28;20444;-75
2021/03/15 11:58:12;;;;;;;3.83;1.90;;;10.40;99.90;;;;;;5017209;28;20536;-75
2021/03/15 12:00:57;;;;;;;5.37;2.00;;;10.60;99.90;;;;;;5022460;28;20479;-75
2021/03/15 12:03:43;;;;;;;5.90;2.40;;;10.70;99.90;;;;;;5017798;28;20532;-75
2021/03/15 12:06:28;;;;;;;6.57;2.10;;;10.90;99.90;;;;;;5022420;28;20833;-75
2021/03/15 12:09:13;;;;;;;3.47;2.00;;;11.10;99.90;;;;;;5020753;28;21045;-74
2021/03/15 12:11:58;;;;;;;5.50;1.80;;;10.80;99.90;;;;;;5020266;28;20527;-74
2021/03/15 12:14:44;;;;;;;3.60;2.20;;;10.70;99.90;;;;;;5015938;28;20544;-75
2021/03/15 12:17:29;;;;;;;5.80;2.13;;;10.80;99.90;;;;;;5021997;28;20866;-75
2021/03/15 12:20:16;;;;;;;4.33;1.80;;;10.60;99.90;;;;;;5021364;28;20480;-74
2021/03/15 12:23:01;;;;;;;4.30;2.07;;;10.40;99.90;;;;;;5019055;28;20469;-75
2021/03/15 12:25:47;;;;;;;3.67;2.20;;;10.40;99.90;;;;;;5024192;28;20449;-75
2021/03/15 12:28:32;;;;;;;3.80;2.13;;;10.30;99.90;;;;;;5017501;28;20449;-75
2021/03/15 12:31:17;;;;;;;12.27;3.30;;;10.50;99.90;;;;;;5020426;28;20477;-75
2021/03/15 12:34:02;;;;;;;7.37;2.57;;;10.80;99.90;;;;;;5014774;28;20460;-75
2021/03/15 12:36:48;;;;;;;6.67;2.20;;;11.20;99.90;;;;;;5023407;28;20966;-75
2021/03/15 12:39:34;;;;;;;3.97;2.50;;;10.90;99.90;;;;;;5014711;28;20556;-74
2021/03/15 12:42:19;;;;;;;3.50;2.27;;;10.90;99.90;;;;;;5018539;28;20452;-74
2021/03/15 12:45:07;;;;;;;5.83;2.80;;;10.70;99.90;;;;;;5026601;28;20491;-75
2021/03/15 12:47:52;;;;;;;4.40;2.60;;;10.50;99.90;;;;;;5029173;28;20807;-75
2021/03/15 12:50:37;;;;;;;5.53;2.80;;;10.30;99.90;;;;;;5022765;28;21112;-74
2021/03/15 12:53:23;;;;;;;4.20;2.37;;;10.00;99.90;;;;;;5023744;28;20448;-74
2021/03/15 12:56:08;;;;;;;4.70;2.93;;;10.00;99.90;;;;;;5026338;28;20452;-75
2021/03/15 12:58:53;;;;;;;6.47;3.10;;;10.10;99.90;;;;;;5015660;28;20862;-74
2021/03/15 13:01:38;;;;;;;3.90;3.00;;;10.10;99.90;;;;;;5019559;28;20580;-75
2021/03/15 13:04:23;;;;;;;9.37;3.60;;;10.00;99.90;;;;;;5022245;28;20982;-75
2021/03/15 13:07:08;;;;;;;7.07;3.63;;;10.10;99.90;;;;;;5019896;28;21333;-75
2021/03/15 13:09:54;;;;;;;4.80;3.13;;;10.20;99.90;;;;;;5022297;28;20447;-74
2021/03/15 13:12:40;;;;;;;6.30;3.17;;;10.20;99.90;;;;;;5027261;28;20484;-75
2021/03/15 13:15:25;;;;;;;4.03;2.77;;;10.10;99.90;;;;;;5019460;28;20451;-74
2021/03/15 13:18:12;;;;;;;8.17;3.33;;;10.00;99.90;;;;;;5023344;28;20456;-74
2021/03/15 13:20:57;;;;;;;5.40;3.80;;;9.90;99.90;;;;;;5020855;28;20454;-75
2021/03/15 13:23:42;;;;;;;8.10;2.90;;;9.80;99.90;;;;;;5022289;28;20457;-75
2021/03/15 13:26:28;;;;;;;7.67;3.00;;;10.00;99.90;;;;;;5017336;28;20497;-75
2021/03/15 13:29:14;;;;;;;5.07;2.80;;;10.50;99.90;;;;;;5024641;28;20464;-75
2021/03/15 13:31:59;;;;;;;4.73;2.93;;;10.90;99.90;;;;;;5019574;28;20473;-75
2021/03/15 13:34:44;;;;;;;3.60;2.27;;;11.00;99.90;;;;;;5016579;28;20447;-75
2021/03/15 13:37:29;;;;;;;3.90;2.43;;;11.30;99.90;;;;;;5022379;28;20945;-75
2021/03/15 13:40:14;;;;;;;6.23;2.13;;;11.70;99.90;;;;;;5018257;28;20504;-75
2021/03/15 13:43:00;;;;;;;3.20;2.30;;;12.00;99.10;;;;;;5019232;28;20825;-74
2021/03/15 13:45:45;;;;;;;3.53;2.43;;;12.40;93.90;;;;;;5019613;28;20792;-75
2021/03/15 13:48:30;;;;;;;2.50;1.80;;;12.70;91.70;;;;;;5024033;28;20502;-75
2021/03/15 13:51:15;;;;;;;8.60;2.50;;;12.90;78.10;;;;;;4996545;28;707284;-75
2021/03/15 13:54:02;;;;;;;3.50;2.40;;;13.00;71.80;;;;;;5024518;28;20229;-75
2021/03/15 13:56:47;;;;;;;5.40;2.50;;;12.90;73.20;;;;;;5022700;28;20464;-75
2021/03/15 13:59:34;;;;;;;6.07;2.60;;;12.80;71.40;;;;;;5020646;28;20492;-75
2021/03/15 14:02:19;;;;;;;5.97;2.57;;;12.50;74.80;;;;;;5023463;28;20419;-75
2021/03/15 14:05:04;;;;;;;7.93;2.67;;;12.10;75.80;;;;;;5019934;28;20485;-75
2021/03/15 14:07:50;;;;;;;5.93;2.53;;;11.80;82.10;;;;;;5021800;28;20473;-74
2021/03/15 14:10:35;;;;;;;6.10;2.67;;;11.00;94.80;;;;;;5015211;28;20460;-75
2021/03/15 14:13:20;;;;;;;5.17;2.40;;;10.40;99.90;;;;;;5018612;28;20460;-75
2021/03/15 14:16:07;;;;;;;3.90;2.57;;;10.10;99.90;;;;;;5024528;28;20544;-75
2021/03/15 14:18:52;;;;;;;6.60;2.37;;;10.00;99.90;;;;;;5021798;28;20772;-75
2021/03/15 14:21:37;;;;;;;3.23;2.10;;;10.20;99.90;;;;;;5023441;28;21028;-76
2021/03/15 14:24:22;;;;;;;5.17;2.50;;;10.70;99.90;;;;;;5020869;28;20542;-75
2021/03/15 14:27:07;;;;;;;5.13;2.50;;;11.10;99.90;;;;;;5025729;28;20440;-76
2021/03/15 14:29:55;;;;;;;3.67;1.90;;;11.60;99.90;;;;;;5019208;28;20546;-76
2021/03/15 14:32:41;;;;;;;4.50;1.87;;;12.10;99.90;;;;;;5020532;28;20937;-76
2021/03/15 14:35:26;;;;;;;4.83;1.97;;;12.60;99.90;;;;;;5020946;28;20440;-76
2021/03/15 14:38:11;;;;;;;3.43;1.90;;;13.10;98.20;;;;;;5019298;28;20507;-76
2021/03/15 14:40:56;;;;;;;3.47;2.00;;;13.30;82.80;;;;;;5025515;28;20817;-76